createdAt,value
2019-03-31T00:04:32.515Z,10.00
2019-03-31T00:09:27.136Z,9.80
2019-03-31T00:14:21.712Z,9.60
2019-03-31T00:19:15.829Z,9.60
2019-03-31T00:24:10.426Z,9.70
2019-03-31T00:29:05.057Z,9.80
2019-03-31T00:33:59.614Z,9.60
2019-03-31T00:38:54.083Z,9.50
2019-03-31T00:43:48.820Z,9.40
2019-03-31T00:48:43.212Z,9.40
2019-03-31T00:53:37.801Z,9.40
2019-03-31T00:58:32.000Z,9.30
2019-03-31T01:03:26.455Z,9.30
2019-03-31T01:08:21.224Z,9.30
2019-03-31T01:13:15.846Z,9.30
2019-03-31T01:18:10.827Z,9.20
2019-03-31T01:23:05.688Z,9.10
2019-03-31T01:28:00.083Z,9.10
2019-03-31T01:32:55.214Z,9.10
2019-03-31T01:37:50.743Z,9.00
2019-03-31T01:42:45.241Z,9.00
2019-03-31T01:47:39.829Z,8.90
2019-03-31T01:52:34.196Z,8.80
2019-03-31T01:57:28.665Z,8.80
2019-03-31T02:02:28.831Z,8.70
2019-03-31T02:07:23.369Z,8.60
2019-03-31T02:12:17.767Z,8.50
2019-03-31T02:17:12.410Z,8.50
2019-03-31T02:22:06.863Z,8.30
2019-03-31T02:27:01.488Z,8.30
2019-03-31T02:31:55.998Z,8.30
2019-03-31T02:36:50.519Z,8.40
2019-03-31T02:41:45.034Z,8.50
2019-03-31T02:46:40.784Z,8.40
2019-03-31T02:51:35.393Z,8.20
2019-03-31T02:56:30.651Z,8.10
2019-03-31T03:01:26.030Z,8.00
2019-03-31T03:06:21.591Z,7.90
2019-03-31T03:11:17.489Z,7.90
2019-03-31T03:16:18.504Z,7.90
2019-03-31T03:21:13.040Z,7.90
2019-03-31T03:26:07.667Z,7.90
2019-03-31T03:31:02.430Z,7.80
2019-03-31T03:35:57.007Z,7.70
2019-03-31T03:40:51.473Z,7.80
2019-03-31T03:45:46.026Z,7.90
2019-03-31T03:50:40.585Z,7.90
2019-03-31T03:55:35.152Z,7.80
2019-03-31T04:00:29.603Z,7.70
2019-03-31T04:05:23.876Z,7.50
2019-03-31T04:11:13.283Z,7.30
2019-03-31T04:16:07.735Z,7.30
2019-03-31T04:21:02.394Z,7.20
2019-03-31T04:25:56.890Z,7.30
2019-03-31T04:30:50.959Z,7.30
2019-03-31T04:36:04.442Z,7.30
2019-03-31T04:40:58.701Z,7.20
2019-03-31T04:45:53.153Z,6.80
2019-03-31T04:50:47.471Z,6.80
2019-03-31T04:55:42.081Z,7.00
2019-03-31T05:00:38.974Z,7.00
2019-03-31T05:05:34.275Z,7.00
2019-03-31T05:10:29.009Z,6.90
2019-03-31T05:15:23.702Z,6.80
2019-03-31T05:20:18.194Z,6.70
2019-03-31T05:25:12.858Z,6.70
2019-03-31T05:30:07.440Z,6.90
2019-03-31T05:35:01.891Z,6.90
2019-03-31T05:39:56.575Z,7.20
2019-03-31T05:44:51.191Z,7.30
2019-03-31T05:49:45.740Z,7.30
2019-03-31T05:54:40.306Z,7.40
2019-03-31T05:59:34.736Z,7.60
2019-03-31T06:04:33.325Z,7.90
2019-03-31T06:09:27.673Z,8.30
2019-03-31T06:14:22.328Z,8.70
2019-03-31T06:19:16.919Z,9.10
2019-03-31T06:24:11.423Z,9.60
2019-03-31T06:29:06.697Z,9.80
2019-03-31T06:34:01.380Z,9.90
2019-03-31T06:38:55.720Z,10.10
2019-03-31T06:43:50.129Z,10.10
2019-03-31T06:48:44.526Z,10.40
2019-03-31T06:53:38.679Z,10.70
2019-03-31T06:58:33.061Z,11.60
2019-03-31T07:03:27.717Z,12.30
2019-03-31T07:08:24.341Z,13.50
2019-03-31T07:13:18.709Z,14.70
2019-03-31T07:18:15.910Z,16.40
2019-03-31T07:23:09.238Z,17.40
2019-03-31T07:28:03.439Z,18.20
2019-03-31T07:32:59.769Z,18.80
2019-03-31T07:37:54.790Z,18.30
2019-03-31T07:42:51.260Z,17.00
2019-03-31T07:47:46.185Z,16.70
2019-03-31T07:52:40.667Z,18.80
2019-03-31T07:57:35.133Z,20.30
2019-03-31T08:02:29.637Z,21.00
2019-03-31T08:07:24.151Z,21.60
2019-03-31T08:12:18.399Z,21.70
2019-03-31T08:17:12.854Z,21.90
2019-03-31T08:22:09.199Z,22.20
2019-03-31T08:27:05.591Z,22.40
2019-03-31T08:31:59.743Z,22.50
2019-03-31T08:36:54.340Z,22.50
2019-03-31T08:41:48.855Z,22.50
2019-03-31T08:46:43.154Z,22.80
2019-03-31T08:51:38.593Z,22.70
2019-03-31T08:56:33.287Z,22.90
2019-03-31T09:01:27.718Z,23.10
2019-03-31T09:06:22.315Z,23.10
2019-03-31T09:11:16.876Z,22.30
2019-03-31T09:16:11.410Z,22.20
2019-03-31T09:21:05.803Z,22.80
2019-03-31T09:25:59.963Z,22.90
2019-03-31T09:30:54.657Z,23.50
2019-03-31T09:35:51.843Z,23.60
2019-03-31T09:40:46.508Z,23.80
2019-03-31T09:45:40.835Z,23.00
2019-03-31T09:50:35.499Z,22.40
2019-03-31T09:55:29.802Z,21.60
2019-03-31T10:00:47.860Z,21.00
2019-03-31T10:05:42.505Z,20.70
2019-03-31T10:10:38.898Z,19.60
2019-03-31T10:15:33.089Z,19.00
2019-03-31T10:20:31.520Z,18.60
2019-03-31T10:25:25.246Z,18.30
2019-03-31T10:30:30.885Z,17.80
2019-03-31T10:35:25.627Z,17.40
2019-03-31T10:40:21.211Z,16.90
2019-03-31T10:45:16.707Z,17.00
2019-03-31T10:50:11.257Z,17.00
2019-03-31T10:55:06.504Z,16.80
2019-03-31T11:00:01.036Z,16.30
2019-03-31T11:04:56.774Z,15.80
2019-03-31T11:09:51.264Z,15.80
2019-03-31T11:14:45.713Z,15.60
2019-03-31T11:19:40.176Z,15.10
2019-03-31T11:24:34.721Z,15.00
2019-03-31T11:29:29.387Z,15.20
2019-03-31T11:34:23.911Z,15.20
2019-03-31T11:39:17.980Z,15.50
2019-03-31T11:44:14.018Z,15.70
2019-03-31T11:49:08.674Z,15.30
2019-03-31T11:54:04.109Z,15.20
2019-03-31T11:59:00.177Z,15.40
2019-03-31T12:03:54.648Z,15.90
2019-03-31T12:08:49.167Z,15.50
2019-03-31T12:13:43.589Z,15.50
2019-03-31T12:18:38.023Z,15.20
2019-03-31T12:23:32.392Z,14.80
2019-03-31T12:28:26.915Z,15.20
2019-03-31T12:33:20.952Z,15.00
2019-03-31T12:38:15.410Z,15.10
2019-03-31T12:43:09.529Z,14.60
2019-03-31T12:48:03.784Z,14.30
2019-03-31T12:52:58.092Z,13.80
2019-03-31T12:57:52.348Z,13.90
2019-03-31T13:02:46.588Z,13.60
2019-03-31T13:07:40.779Z,13.50
2019-03-31T13:12:35.432Z,13.80
2019-03-31T13:17:29.850Z,14.20
2019-03-31T13:22:24.404Z,14.40
2019-03-31T13:27:18.898Z,14.10
2019-03-31T13:32:13.006Z,14.30
2019-03-31T13:37:07.073Z,14.60
2019-03-31T13:42:01.355Z,14.60
2019-03-31T13:46:55.693Z,14.60
2019-03-31T13:51:50.107Z,14.40
2019-03-31T13:56:47.738Z,14.40
2019-03-31T14:01:41.140Z,14.70
2019-03-31T14:06:35.346Z,15.00
2019-03-31T14:11:29.732Z,15.10
2019-03-31T14:16:28.909Z,15.10
2019-03-31T14:21:21.903Z,14.80
2019-03-31T14:26:16.424Z,15.00
2019-03-31T14:31:10.941Z,15.30
2019-03-31T14:36:05.759Z,15.20
2019-03-31T14:41:00.389Z,15.30
2019-03-31T14:45:54.804Z,15.10
2019-03-31T14:50:48.846Z,15.30
2019-03-31T14:55:43.003Z,15.50
2019-03-31T15:00:38.034Z,15.30
2019-03-31T15:05:32.461Z,15.50
2019-03-31T15:10:26.801Z,15.60
2019-03-31T15:15:20.921Z,15.30
2019-03-31T15:20:16.914Z,15.40
2019-03-31T15:25:11.489Z,15.40
2019-03-31T15:30:06.577Z,15.30
2019-03-31T15:35:00.700Z,15.30
2019-03-31T15:39:55.006Z,15.00
2019-03-31T15:44:49.224Z,14.60
2019-03-31T15:49:44.423Z,14.40
2019-03-31T15:54:38.616Z,14.40
2019-03-31T15:59:32.625Z,14.20
2019-03-31T16:04:26.668Z,14.10
2019-03-31T16:09:23.764Z,14.30
2019-03-31T16:14:15.052Z,14.30
2019-03-31T16:19:08.297Z,14.30
2019-03-31T16:24:02.219Z,14.00
2019-03-31T16:28:55.378Z,13.80
2019-03-31T16:33:48.723Z,13.60
2019-03-31T16:38:42.256Z,13.60
2019-03-31T16:43:35.780Z,13.40
2019-03-31T16:48:28.998Z,13.40
2019-03-31T16:53:22.403Z,13.30
2019-03-31T16:58:16.012Z,13.30
2019-03-31T17:03:10.126Z,13.20
2019-03-31T17:08:05.214Z,13.10
2019-03-31T17:12:58.773Z,12.90
2019-03-31T17:17:52.001Z,12.80
2019-03-31T17:22:45.761Z,12.70
2019-03-31T17:27:39.168Z,12.60
2019-03-31T17:32:32.716Z,12.50
2019-03-31T17:37:26.617Z,12.20
2019-03-31T17:42:20.361Z,12.10
2019-03-31T17:47:14.251Z,12.00
2019-03-31T17:52:07.463Z,11.80
2019-03-31T17:57:00.852Z,11.70
2019-03-31T18:01:54.161Z,11.60
2019-03-31T18:06:47.593Z,11.50
2019-03-31T18:11:40.850Z,11.30
2019-03-31T18:16:34.563Z,11.20
2019-03-31T18:21:28.204Z,11.10
2019-03-31T18:26:21.858Z,10.90
2019-03-31T18:31:15.169Z,10.80
2019-03-31T18:36:08.902Z,10.70
2019-03-31T18:41:03.841Z,10.60
2019-03-31T18:45:59.168Z,10.50
2019-03-31T18:50:52.905Z,10.50
2019-03-31T18:56:07.480Z,10.40
2019-03-31T19:01:21.040Z,10.30
2019-03-31T19:06:34.336Z,10.30
2019-03-31T19:11:53.064Z,10.20
2019-03-31T19:16:56.483Z,10.10
2019-03-31T19:22:16.542Z,10.00
2019-03-31T19:27:44.679Z,10.10
2019-03-31T19:32:59.433Z,10.00
2019-03-31T19:38:21.052Z,10.00
2019-03-31T19:43:24.076Z,9.90
2019-03-31T19:48:43.023Z,9.80
2019-03-31T19:53:54.824Z,9.70
2019-03-31T19:59:16.760Z,9.70
2019-03-31T20:04:22.466Z,9.60
2019-03-31T20:09:35.266Z,9.60
2019-03-31T20:14:53.758Z,9.60
2019-03-31T20:20:04.863Z,9.50
2019-03-31T20:25:26.450Z,9.50
2019-03-31T20:30:37.672Z,9.40
2019-03-31T20:35:49.708Z,9.40
2019-03-31T20:40:53.414Z,9.30
2019-03-31T20:45:46.699Z,9.20
2019-03-31T20:50:40.065Z,9.20
2019-03-31T20:55:33.572Z,9.10
2019-03-31T21:00:26.833Z,9.10
2019-03-31T21:05:20.097Z,9.10
2019-03-31T21:10:13.690Z,9.00
2019-03-31T21:15:07.557Z,9.00
2019-03-31T21:20:00.868Z,8.90
2019-03-31T21:24:54.529Z,8.90
2019-03-31T21:29:47.760Z,8.80
2019-03-31T21:34:41.173Z,8.70
2019-03-31T21:39:34.533Z,8.70
2019-03-31T21:44:27.860Z,8.60
2019-03-31T21:49:21.039Z,8.60
2019-03-31T21:54:14.255Z,8.60
2019-03-31T21:59:07.462Z,8.60
2019-03-31T22:04:00.850Z,8.60
2019-03-31T22:08:54.306Z,8.60
2019-03-31T22:13:47.531Z,8.50
2019-03-31T22:18:40.712Z,8.50
2019-03-31T22:23:34.896Z,8.40
2019-03-31T22:28:28.120Z,8.40
2019-03-31T22:33:21.474Z,8.40
2019-03-31T22:38:14.568Z,8.30
2019-03-31T22:43:08.113Z,8.20
2019-03-31T22:48:01.350Z,8.20
2019-03-31T22:52:55.003Z,8.20
2019-03-31T22:57:48.236Z,8.20
2019-03-31T23:02:41.389Z,8.10
2019-03-31T23:07:35.816Z,8.00
2019-03-31T23:12:29.082Z,8.00
2019-03-31T23:17:22.278Z,7.90
2019-03-31T23:22:15.398Z,7.80
2019-03-31T23:27:08.611Z,7.70
2019-03-31T23:32:05.952Z,7.70
2019-03-31T23:37:04.297Z,7.60
2019-03-31T23:41:57.664Z,7.60
2019-03-31T23:46:50.805Z,7.60
2019-03-31T23:51:43.965Z,7.50
2019-03-31T23:56:37.096Z,7.40
